Terminal Aerodrome Forecast
Issued by NWS Wilmington, OH

Current Version | Previous Version | Graphics & Text | Print | Product List | Glossary On
Versions: 1 2 3 4 5 6 7 8 9 10 11 12 13 14 15 16 17 18
428
FTUS41 KILN 210146 RRA
TAFCMH
TAF
KCMH 210146Z 2102/2124 19012KT P6SM VCTS BKN040CB
      TEMPO 2102/2104 4SM -SHRA SCT020 BKN035
     FM210400 21010KT P6SM BKN035
     FM211100 27009KT P6SM BKN025
     FM211400 26010KT P6SM BKN035=

USA.gov is the U.S. government's official web portal to all federal, state and local government web resources and services.